Time;durP1;ratioP1;P1;durP2;ratioP2;P2;SDS_P1;SDS_P2;PMS_P1;PMS_P2;Temp;Humidity;BMP_temperature;BMP_pressure;BME280_temperature;BME280_humidity;BME280_pressure;Samples;Min_cycle;Max_cycle;Signal;HPM_P1;HPM_P2
2022/12/15 00:38:44;;;;;;;24.80;15.75;;;;;;;;;;5065693;28;20236;-81
2022/12/15 00:41:11;;;;;;;33.97;17.73;;;;;;;;;;5072139;28;20205;-83
2022/12/15 00:43:38;;;;;;;29.52;17.95;;;;;;;;;;5072983;28;20225;-82
2022/12/15 00:48:50;;;;;;;28.48;16.50;;;;;;;;;;5071936;28;20238;-82
2022/12/15 00:51:15;;;;;;;30.27;17.30;;;;;;;;;;5075431;28;20208;-82
2022/12/15 01:21:07;;;;;;;26.55;14.45;;;;;;;;;;5070886;28;20207;-82
2022/12/15 01:23:34;;;;;;;28.77;16.70;;;;;;;;;;5069753;28;20232;-82
2022/12/15 01:26:00;;;;;;;34.72;17.75;;;;;;;;;;5070467;28;20202;-82
2022/12/15 01:28:27;;;;;;;25.15;16.50;;;;;;;;;;5075698;28;20233;-82
2022/12/15 01:30:54;;;;;;;32.70;16.67;;;;;;;;;;5073293;28;20212;-83
2022/12/15 01:33:21;;;;;;;25.25;15.50;;;;;;;;;;5074160;28;20239;-83
2022/12/15 01:35:54;;;;;;;30.40;16.17;;;;;;;;;;5071581;28;20217;-83
2022/12/15 01:38:22;;;;;;;30.38;16.23;;;;;;;;;;5073098;28;20224;-82
2022/12/15 01:40:50;;;;;;;29.60;17.02;;;;;;;;;;5071502;28;20203;-82
2022/12/15 01:43:17;;;;;;;34.10;17.88;;;;;;;;;;5074463;28;20231;-81
2022/12/15 01:45:49;;;;;;;31.27;16.73;;;;;;;;;;5070570;28;20215;-82
2022/12/15 01:48:19;;;;;;;28.15;16.42;;;;;;;;;;5069728;28;20240;-86
2022/12/15 01:50:46;;;;;;;33.42;17.38;;;;;;;;;;5066781;28;20223;-82
2022/12/15 01:53:13;;;;;;;30.45;17.15;;;;;;;;;;5071997;28;20717;-82
2022/12/15 01:55:42;;;;;;;29.13;15.43;;;;;;;;;;5066276;28;20201;-83
2022/12/15 01:58:10;;;;;;;22.45;14.55;;;;;;;;;;5070366;28;20220;-82
2022/12/15 02:00:36;;;;;;;24.08;16.05;;;;;;;;;;5072165;28;20201;-82
2022/12/15 02:03:04;;;;;;;33.75;16.00;;;;;;;;;;5069645;28;20205;-81
2022/12/15 02:05:31;;;;;;;27.50;17.25;;;;;;;;;;5067908;28;20198;-83
2022/12/15 02:07:59;;;;;;;24.83;14.73;;;;;;;;;;5067036;28;20244;-82
2022/12/15 02:10:27;;;;;;;27.00;15.18;;;;;;;;;;5069449;28;20205;-82
2022/12/15 02:13:00;;;;;;;30.55;16.92;;;;;;;;;;5075428;28;20212;-82
2022/12/15 02:15:30;;;;;;;27.90;16.33;;;;;;;;;;5069021;28;20217;-82
2022/12/15 02:18:00;;;;;;;25.45;15.70;;;;;;;;;;5070164;28;20227;-82
2022/12/15 02:20:45;;;;;;;24.60;15.77;;;;;;;;;;5075642;28;20205;-83
2022/12/15 02:23:30;;;;;;;25.73;15.50;;;;;;;;;;5075537;28;20602;-82
2022/12/15 02:26:10;;;;;;;33.42;16.05;;;;;;;;;;5072536;28;20705;-81
2022/12/15 02:28:47;;;;;;;30.38;16.27;;;;;;;;;;5075079;28;20610;-82
2022/12/15 02:34:05;;;;;;;32.47;16.40;;;;;;;;;;5073496;28;20278;-81
2022/12/15 02:36:33;;;;;;;27.27;16.70;;;;;;;;;;5074267;28;20311;-82
2022/12/15 02:38:59;;;;;;;30.25;17.92;;;;;;;;;;5072573;28;20225;-82
2022/12/15 02:41:45;;;;;;;28.48;15.27;;;;;;;;;;5076548;28;20216;-82
2022/12/15 02:44:13;;;;;;;22.98;15.35;;;;;;;;;;5077307;28;20224;-83
2022/12/15 02:46:48;;;;;;;26.25;15.73;;;;;;;;;;5072931;28;20579;-81
2022/12/15 02:49:20;;;;;;;27.27;16.00;;;;;;;;;;5074713;28;20228;-82
2022/12/15 02:51:52;;;;;;;28.77;17.20;;;;;;;;;;5075120;28;20227;-82
2022/12/15 02:54:27;;;;;;;32.03;17.13;;;;;;;;;;5078996;28;20233;-82
2022/12/15 02:56:58;;;;;;;26.85;15.07;;;;;;;;;;5072370;28;20208;-83
2022/12/15 02:59:27;;;;;;;24.30;16.80;;;;;;;;;;5075916;28;20231;-82
2022/12/15 03:01:57;;;;;;;27.10;15.65;;;;;;;;;;5073511;28;20213;-82
2022/12/15 03:04:25;;;;;;;29.58;17.30;;;;;;;;;;5073813;28;20383;-81
2022/12/15 03:06:55;;;;;;;36.03;17.25;;;;;;;;;;5073841;28;20674;-81
2022/12/15 03:09:21;;;;;;;32.83;17.48;;;;;;;;;;5072349;28;20224;-81
2022/12/15 03:11:48;;;;;;;21.65;14.60;;;;;;;;;;5068331;28;20701;-83
2022/12/15 03:14:14;;;;;;;30.40;16.13;;;;;;;;;;5072584;28;20229;-82
2022/12/15 03:16:41;;;;;;;28.55;16.98;;;;;;;;;;5074285;28;20210;-82
2022/12/15 03:19:08;;;;;;;25.75;17.45;;;;;;;;;;5068668;28;20232;-84
2022/12/15 03:21:34;;;;;;;31.05;17.48;;;;;;;;;;5074213;28;20201;-83
2022/12/15 03:24:01;;;;;;;28.73;16.00;;;;;;;;;;5071103;28;20228;-81
2022/12/15 03:26:27;;;;;;;29.63;15.98;;;;;;;;;;5072493;28;20197;-81
2022/12/15 03:28:53;;;;;;;31.38;16.48;;;;;;;;;;5075369;28;20298;-82
2022/12/15 03:31:20;;;;;;;33.15;19.33;;;;;;;;;;5074529;28;20201;-82
2022/12/15 03:33:46;;;;;;;27.90;18.48;;;;;;;;;;5072658;28;20244;-82
2022/12/15 03:36:15;;;;;;;33.25;17.15;;;;;;;;;;5073859;28;20208;-83
2022/12/15 03:38:42;;;;;;;27.55;16.95;;;;;;;;;;5073800;28;20239;-82
2022/12/15 03:41:08;;;;;;;31.63;16.90;;;;;;;;;;5072791;28;20563;-82
2022/12/15 03:43:34;;;;;;;29.20;17.80;;;;;;;;;;5077978;28;20236;-82
2022/12/15 03:46:01;;;;;;;31.02;17.00;;;;;;;;;;5074263;28;20201;-83
2022/12/15 03:48:27;;;;;;;30.58;16.30;;;;;;;;;;5076686;28;20228;-83
2022/12/15 03:50:54;;;;;;;23.77;16.85;;;;;;;;;;5075370;28;20223;-82
2022/12/15 03:53:21;;;;;;;25.42;18.50;;;;;;;;;;5073139;28;20225;-82
2022/12/15 03:55:48;;;;;;;32.20;17.20;;;;;;;;;;5074422;28;20225;-82
2022/12/15 03:58:14;;;;;;;35.50;18.85;;;;;;;;;;5071093;28;20306;-82
2022/12/15 04:00:40;;;;;;;24.95;15.68;;;;;;;;;;5071221;28;20201;-83
2022/12/15 04:03:07;;;;;;;29.15;15.88;;;;;;;;;;5074086;28;20212;-82
2022/12/15 04:05:34;;;;;;;26.85;15.63;;;;;;;;;;5075650;28;20203;-82
2022/12/15 04:08:01;;;;;;;29.17;18.10;;;;;;;;;;5078372;28;20228;-82
2022/12/15 04:10:30;;;;;;;31.05;17.85;;;;;;;;;;5072574;28;20201;-83
2022/12/15 04:12:57;;;;;;;21.73;15.00;;;;;;;;;;5070677;28;20194;-82
2022/12/15 04:15:23;;;;;;;27.88;16.35;;;;;;;;;;5075608;28;20660;-82
2022/12/15 04:17:50;;;;;;;29.35;17.27;;;;;;;;;;5072669;28;20217;-83
2022/12/15 04:20:17;;;;;;;26.90;16.17;;;;;;;;;;5070810;28;20229;-82
2022/12/15 04:22:44;;;;;;;27.23;16.88;;;;;;;;;;5073902;28;20204;-83
2022/12/15 05:33:40;;;;;;;22.40;14.73;;;;;;;;;;5074328;28;20235;-82
2022/12/15 05:36:07;;;;;;;27.58;15.23;;;;;;;;;;5072281;28;20588;-81
2022/12/15 05:38:33;;;;;;;30.77;16.13;;;;;;;;;;5063057;28;20228;-82
2022/12/15 05:41:00;;;;;;;28.40;16.63;;;;;;;;;;5068267;28;20193;-83
2022/12/15 05:43:27;;;;;;;26.77;15.90;;;;;;;;;;5071279;28;20221;-83
2022/12/15 05:45:54;;;;;;;25.30;16.77;;;;;;;;;;5072443;28;20720;-83
2022/12/15 05:48:20;;;;;;;29.55;16.90;;;;;;;;;;5070932;28;20229;-84
2022/12/15 05:50:49;;;;;;;27.63;16.60;;;;;;;;;;5066984;28;20217;-83
2022/12/15 05:53:15;;;;;;;34.95;18.00;;;;;;;;;;5070452;28;20620;-82
2022/12/15 05:55:42;;;;;;;27.75;16.52;;;;;;;;;;5070852;28;20236;-81
2022/12/15 05:58:08;;;;;;;25.30;14.70;;;;;;;;;;5071093;28;20224;-81
2022/12/15 06:00:34;;;;;;;25.65;14.13;;;;;;;;;;5070532;28;20327;-81
2022/12/15 06:03:01;;;;;;;24.17;15.95;;;;;;;;;;5068707;28;20197;-85
2022/12/15 06:05:27;;;;;;;27.80;17.10;;;;;;;;;;5070292;28;20224;-82
2022/12/15 06:07:55;;;;;;;27.88;14.60;;;;;;;;;;5071365;28;20842;-84
2022/12/15 06:10:21;;;;;;;29.38;16.67;;;;;;;;;;5068240;28;20654;-81
2022/12/15 06:12:48;;;;;;;25.30;15.30;;;;;;;;;;5074115;28;20193;-82
2022/12/15 06:15:14;;;;;;;22.50;15.48;;;;;;;;;;5065730;28;20230;-82
2022/12/15 06:17:41;;;;;;;24.95;14.80;;;;;;;;;;5068945;28;20573;-82
2022/12/15 06:20:07;;;;;;;29.92;16.63;;;;;;;;;;5071229;28;20236;-83
2022/12/15 06:22:34;;;;;;;30.58;16.50;;;;;;;;;;5072664;28;20204;-82
2022/12/15 06:25:01;;;;;;;29.17;16.52;;;;;;;;;;5077249;28;20581;-82
2022/12/15 06:27:28;;;;;;;31.55;16.23;;;;;;;;;;5073620;28;20591;-81
2022/12/15 06:29:55;;;;;;;23.83;15.73;;;;;;;;;;5072482;28;20224;-83
2022/12/15 06:32:21;;;;;;;27.13;15.43;;;;;;;;;;5068182;28;20203;-82
2022/12/15 06:34:48;;;;;;;32.47;19.23;;;;;;;;;;5072346;28;20233;-83
2022/12/15 06:37:15;;;;;;;25.33;16.40;;;;;;;;;;5064073;28;20239;-81
2022/12/15 06:39:41;;;;;;;41.95;19.30;;;;;;;;;;5071498;28;20233;-82
2022/12/15 06:42:09;;;;;;;29.13;17.48;;;;;;;;;;5072958;28;20203;-83
2022/12/15 06:44:35;;;;;;;30.48;18.27;;;;;;;;;;5069192;28;20237;-82
2022/12/15 06:47:02;;;;;;;25.95;15.55;;;;;;;;;;5071935;28;20201;-83
2022/12/15 06:49:28;;;;;;;32.38;18.33;;;;;;;;;;5073058;28;20722;-82
2022/12/15 06:51:55;;;;;;;26.65;16.13;;;;;;;;;;5071647;28;20201;-82
2022/12/15 06:54:21;;;;;;;29.65;15.75;;;;;;;;;;5071279;28;20243;-82
2022/12/15 06:56:48;;;;;;;31.83;18.13;;;;;;;;;;5069659;28;20375;-81
2022/12/15 06:59:15;;;;;;;25.85;16.27;;;;;;;;;;5071093;28;20245;-82
2022/12/15 07:01:42;;;;;;;28.45;15.75;;;;;;;;;;5073660;28;20208;-86
2022/12/15 07:04:09;;;;;;;26.05;18.33;;;;;;;;;;5072524;28;20225;-83
2022/12/15 07:06:37;;;;;;;26.75;17.73;;;;;;;;;;5075532;28;20204;-82
2022/12/15 07:09:04;;;;;;;23.17;16.73;;;;;;;;;;5073025;28;20236;-82
2022/12/15 07:11:30;;;;;;;27.58;19.15;;;;;;;;;;5073879;28;20196;-83
2022/12/15 07:13:56;;;;;;;26.00;19.02;;;;;;;;;;5075650;28;20233;-82
2022/12/15 07:16:24;;;;;;;26.30;16.52;;;;;;;;;;5074989;28;20217;-82
2022/12/15 07:18:51;;;;;;;29.13;17.55;;;;;;;;;;5072305;28;20232;-84
2022/12/15 07:21:17;;;;;;;29.60;17.77;;;;;;;;;;5072669;28;20682;-82
2022/12/15 07:23:43;;;;;;;25.23;16.60;;;;;;;;;;5075786;28;20237;-83
2022/12/15 07:26:10;;;;;;;23.77;16.70;;;;;;;;;;5071636;28;20211;-82
2022/12/15 07:28:37;;;;;;;28.48;16.85;;;;;;;;;;5075282;28;20338;-82
2022/12/15 07:31:04;;;;;;;31.20;17.17;;;;;;;;;;5074703;28;20206;-82
2022/12/15 07:33:33;;;;;;;27.08;15.75;;;;;;;;;;5071160;28;20229;-82
2022/12/15 07:35:59;;;;;;;32.38;16.60;;;;;;;;;;5074100;28;20259;-83
2022/12/15 07:38:26;;;;;;;27.20;15.32;;;;;;;;;;5076591;28;20228;-82
2022/12/15 07:40:52;;;;;;;29.35;16.95;;;;;;;;;;5076071;28;20201;-82
2022/12/15 07:43:19;;;;;;;28.35;16.77;;;;;;;;;;5076138;28;20232;-82
2022/12/15 07:45:51;;;;;;;25.77;16.58;;;;;;;;;;5077671;28;20196;-82
2022/12/15 07:48:17;;;;;;;32.95;17.58;;;;;;;;;;5077518;28;20237;-82
2022/12/15 07:50:45;;;;;;;27.98;18.50;;;;;;;;;;5074199;28;20217;-84
2022/12/15 07:53:11;;;;;;;33.42;18.77;;;;;;;;;;5079534;28;20232;-82
2022/12/15 07:55:37;;;;;;;26.20;15.68;;;;;;;;;;5077042;28;20232;-84
2022/12/15 07:58:04;;;;;;;29.55;17.88;;;;;;;;;;5076726;28;20702;-82
2022/12/15 08:00:30;;;;;;;43.65;16.25;;;;;;;;;;5068392;28;20202;-82
2022/12/15 08:02:57;;;;;;;29.65;16.88;;;;;;;;;;5071863;28;20232;-82
2022/12/15 08:05:23;;;;;;;29.38;17.10;;;;;;;;;;5074811;28;20347;-82
2022/12/15 08:07:51;;;;;;;27.65;19.20;;;;;;;;;;5073793;28;20231;-84
2022/12/15 08:10:17;;;;;;;27.08;15.23;;;;;;;;;;5071148;28;20218;-82
2022/12/15 08:12:44;;;;;;;24.17;16.90;;;;;;;;;;5076964;28;20207;-83
2022/12/15 08:15:11;;;;;;;23.98;15.90;;;;;;;;;;5074179;28;20221;-83
2022/12/15 08:17:37;;;;;;;28.38;16.38;;;;;;;;;;5077634;28;20213;-82
2022/12/15 08:20:04;;;;;;;26.40;17.13;;;;;;;;;;5076046;28;20259;-82
2022/12/15 08:22:30;;;;;;;34.40;18.58;;;;;;;;;;5079499;28;20293;-82
2022/12/15 08:24:58;;;;;;;31.30;17.70;;;;;;;;;;5073575;28;20225;-82
2022/12/15 08:27:26;;;;;;;31.77;16.98;;;;;;;;;;5077311;28;20716;-82
2022/12/15 08:29:53;;;;;;;36.13;17.98;;;;;;;;;;5077250;28;20232;-82
2022/12/15 08:32:19;;;;;;;35.67;18.75;;;;;;;;;;5074715;28;20197;-82
2022/12/15 08:34:46;;;;;;;25.13;16.75;;;;;;;;;;5073936;28;20233;-82
2022/12/15 08:37:13;;;;;;;25.92;18.02;;;;;;;;;;5074811;28;20193;-82
2022/12/15 08:39:39;;;;;;;31.55;18.35;;;;;;;;;;5075156;28;20234;-82
2022/12/15 08:42:07;;;;;;;26.88;15.55;;;;;;;;;;5077670;28;20202;-82
2022/12/15 08:44:33;;;;;;;18.02;12.75;;;;;;;;;;5071302;28;20236;-83
2022/12/15 08:47:00;;;;;;;28.60;18.10;;;;;;;;;;5077279;28;20208;-83
2022/12/15 08:49:26;;;;;;;24.75;16.77;;;;;;;;;;5075292;28;20225;-82
2022/12/15 08:51:53;;;;;;;28.65;17.20;;;;;;;;;;5074130;28;20237;-82
2022/12/15 08:54:20;;;;;;;24.55;15.85;;;;;;;;;;5078239;28;20260;-82
2022/12/15 08:56:46;;;;;;;30.23;18.58;;;;;;;;;;5071784;28;20220;-82
2022/12/15 08:59:14;;;;;;;26.65;17.10;;;;;;;;;;5074757;28;20732;-82
2022/12/15 09:01:42;;;;;;;29.38;18.42;;;;;;;;;;5077333;28;20213;-83
2022/12/15 09:04:08;;;;;;;27.75;16.30;;;;;;;;;;5072058;28;20224;-83
2022/12/15 09:06:35;;;;;;;27.38;16.67;;;;;;;;;;5075818;28;20598;-82
2022/12/15 09:09:03;;;;;;;23.75;17.60;;;;;;;;;;5070657;28;20250;-82
2022/12/15 09:11:30;;;;;;;24.50;16.10;;;;;;;;;;5071736;28;20205;-82
2022/12/15 09:13:57;;;;;;;24.90;17.40;;;;;;;;;;5070948;28;20757;-82
2022/12/15 09:16:26;;;;;;;30.65;17.45;;;;;;;;;;5072890;28;21026;-82
2022/12/15 09:18:53;;;;;;;25.23;15.82;;;;;;;;;;5072216;28;20263;-83
2022/12/15 09:21:21;;;;;;;32.47;16.23;;;;;;;;;;5073904;28;20193;-84
2022/12/15 09:23:48;;;;;;;23.05;14.07;;;;;;;;;;5073079;28;20258;-84
2022/12/15 09:26:15;;;;;;;22.70;16.35;;;;;;;;;;5072614;28;20201;-83
2022/12/15 09:28:41;;;;;;;21.30;14.73;;;;;;;;;;5073363;28;20236;-83
2022/12/15 09:31:10;;;;;;;21.25;14.60;;;;;;;;;;5076069;28;20206;-82
2022/12/15 09:33:38;;;;;;;31.37;17.47;;;;;;;;;;5073929;28;20235;-82
2022/12/15 09:36:05;;;;;;;30.10;16.00;;;;;;;;;;5070602;28;20497;-83
2022/12/15 09:38:33;;;;;;;26.38;15.85;;;;;;;;;;5072554;28;20231;-82
2022/12/15 09:41:07;;;;;;;29.88;14.73;;;;;;;;;;5073072;28;20210;-83
2022/12/15 09:43:33;;;;;;;17.10;13.50;;;;;;;;;;5070057;28;20236;-83
2022/12/15 09:46:03;;;;;;;22.35;14.10;;;;;;;;;;5071154;28;20449;-83
2022/12/15 09:48:34;;;;;;;28.45;16.25;;;;;;;;;;5071417;28;20243;-83
2022/12/15 09:51:04;;;;;;;21.27;14.30;;;;;;;;;;5072947;28;20216;-83
2022/12/15 09:53:31;;;;;;;20.33;14.98;;;;;;;;;;5074162;28;20231;-83
2022/12/15 09:56:02;;;;;;;25.67;14.53;;;;;;;;;;5073336;28;20239;-83
2022/12/15 09:58:33;;;;;;;26.23;14.20;;;;;;;;;;5075229;28;20471;-82
2022/12/15 10:01:07;;;;;;;18.23;14.23;;;;;;;;;;5076784;28;20448;-83
2022/12/15 10:03:37;;;;;;;21.37;13.93;;;;;;;;;;5072461;28;20471;-83
2022/12/15 10:06:07;;;;;;;19.80;14.37;;;;;;;;;;5073140;28;20428;-83
2022/12/15 10:08:34;;;;;;;23.43;13.90;;;;;;;;;;5070826;28;20468;-83
2022/12/15 10:11:01;;;;;;;23.37;13.60;;;;;;;;;;5073575;28;20456;-84
2022/12/15 10:13:31;;;;;;;23.83;14.37;;;;;;;;;;5074759;28;20463;-83
2022/12/15 10:16:00;;;;;;;20.73;13.90;;;;;;;;;;5074746;28;20489;-83
2022/12/15 10:18:31;;;;;;;24.20;13.80;;;;;;;;;;5065690;28;20463;-82
2022/12/15 10:20:58;;;;;;;18.33;14.50;;;;;;;;;;5072376;28;20432;-83
2022/12/15 10:23:26;;;;;;;21.80;13.17;;;;;;;;;;5068549;28;20467;-83
2022/12/15 10:25:58;;;;;;;17.63;12.63;;;;;;;;;;5071733;28;20446;-84
2022/12/15 10:28:28;;;;;;;24.03;14.30;;;;;;;;;;5072924;28;21061;-82
2022/12/15 10:30:58;;;;;;;28.10;15.50;;;;;;;;;;5075331;28;20447;-83
2022/12/15 10:33:25;;;;;;;23.60;15.07;;;;;;;;;;5068495;28;20467;-83
2022/12/15 10:35:52;;;;;;;22.67;15.57;;;;;;;;;;5073401;28;20488;-83
2022/12/15 10:38:23;;;;;;;32.93;14.73;;;;;;;;;;5074621;28;20463;-83
2022/12/15 10:40:53;;;;;;;24.63;14.80;;;;;;;;;;5075272;28;20443;-83
2022/12/15 10:43:27;;;;;;;22.83;14.13;;;;;;;;;;5077516;28;20516;-83
2022/12/15 10:46:01;;;;;;;22.10;15.93;;;;;;;;;;5077134;28;20526;-83
2022/12/15 10:48:27;;;;;;;30.23;14.70;;;;;;;;;;5074470;28;20481;-83
2022/12/15 10:51:08;;;;;;;20.77;13.20;;;;;;;;;;5076257;28;20463;-83
2022/12/15 10:53:39;;;;;;;23.60;14.00;;;;;;;;;;5074999;28;20442;-83
2022/12/15 10:56:08;;;;;;;22.30;15.17;;;;;;;;;;5075028;28;20467;-84
2022/12/15 10:58:44;;;;;;;21.83;14.43;;;;;;;;;;5075144;28;20467;-83
2022/12/15 11:01:16;;;;;;;20.93;13.27;;;;;;;;;;5076706;28;20455;-83
2022/12/15 11:03:43;;;;;;;27.33;14.13;;;;;;;;;;5074402;28;20467;-83
2022/12/15 11:06:11;;;;;;;24.40;14.47;;;;;;;;;;5077417;28;20930;-83
2022/12/15 11:08:37;;;;;;;26.50;13.10;;;;;;;;;;5075791;28;20975;-84
2022/12/15 11:14:04;;;;;;;23.10;13.30;;;;;;;;;;5076122;28;20614;-84
2022/12/15 11:16:31;;;;;;;22.80;13.23;;;;;;;;;;5080575;28;20479;-84
2022/12/15 11:19:01;;;;;;;19.43;13.70;;;;;;;;;;5083719;28;20996;-83
2022/12/15 11:21:29;;;;;;;17.73;12.60;;;;;;;;;;5076764;28;20440;-83
2022/12/15 11:23:59;;;;;;;23.60;14.60;;;;;;;;;;5075361;28;20472;-84
2022/12/15 11:26:30;;;;;;;23.40;15.20;;;;;;;;;;5071110;28;20460;-84
2022/12/15 11:28:59;;;;;;;18.30;12.43;;;;;;;;;;5066327;28;20479;-84
2022/12/15 11:31:31;;;;;;;18.60;12.00;;;;;;;;;;5071416;28;20863;-84
2022/12/15 11:33:58;;;;;;;19.90;11.97;;;;;;;;;;5077052;28;20463;-84
2022/12/15 11:36:35;;;;;;;22.60;12.30;;;;;;;;;;5073963;28;20488;-84
2022/12/15 11:39:03;;;;;;;21.13;11.43;;;;;;;;;;5077248;28;20722;-84
2022/12/15 11:41:34;;;;;;;20.90;12.50;;;;;;;;;;5076640;28;20447;-84
2022/12/15 11:44:06;;;;;;;22.27;12.10;;;;;;;;;;5071826;28;20469;-84
2022/12/15 11:46:37;;;;;;;21.00;14.73;;;;;;;;;;5075476;28;20473;-84
2022/12/15 11:49:12;;;;;;;22.70;13.17;;;;;;;;;;5077019;28;20468;-84
2022/12/15 11:51:41;;;;;;;22.07;12.70;;;;;;;;;;5072271;28;20462;-84
2022/12/15 11:54:13;;;;;;;15.63;11.20;;;;;;;;;;5077431;28;20864;-84
2022/12/15 11:56:42;;;;;;;18.80;10.67;;;;;;;;;;5075428;28;20464;-84
2022/12/15 11:59:26;;;;;;;18.07;11.03;;;;;;;;;;5075581;28;20473;-84
2022/12/15 12:02:09;;;;;;;25.00;11.57;;;;;;;;;;5077117;28;20434;-84
2022/12/15 12:04:40;;;;;;;20.07;10.83;;;;;;;;;;5077007;28;20852;-84
2022/12/15 12:07:08;;;;;;;15.60;10.93;;;;;;;;;;5080468;28;20443;-84
2022/12/15 12:09:36;;;;;;;19.97;10.90;;;;;;;;;;5077373;28;20474;-83
2022/12/15 12:12:16;;;;;;;17.20;10.80;;;;;;;;;;5077492;28;20457;-83
2022/12/15 12:14:48;;;;;;;13.50;10.20;;;;;;;;;;5078191;28;20476;-84
2022/12/15 12:17:21;;;;;;;17.73;9.70;;;;;;;;;;5078563;28;20490;-84
2022/12/15 12:19:50;;;;;;;16.97;11.77;;;;;;;;;;5077680;28;20469;-83
2022/12/15 12:22:20;;;;;;;19.00;11.00;;;;;;;;;;5076860;28;20534;-85
2022/12/15 12:24:50;;;;;;;16.50;10.70;;;;;;;;;;5074454;28;20488;-84
2022/12/15 12:27:21;;;;;;;13.17;10.47;;;;;;;;;;5078130;28;21063;-84
2022/12/15 12:29:50;;;;;;;16.57;10.30;;;;;;;;;;5074086;28;20477;-84
2022/12/15 12:32:25;;;;;;;17.03;11.63;;;;;;;;;;5073935;28;20456;-84
2022/12/15 12:34:56;;;;;;;14.47;10.33;;;;;;;;;;5071095;28;20473;-84
2022/12/15 12:37:25;;;;;;;21.87;11.07;;;;;;;;;;5077421;28;20560;-84
2022/12/15 12:39:52;;;;;;;15.23;10.67;;;;;;;;;;5071452;28;20484;-83
2022/12/15 12:42:21;;;;;;;18.13;10.93;;;;;;;;;;5073436;28;20456;-84
2022/12/15 12:44:48;;;;;;;16.27;10.07;;;;;;;;;;5075037;28;20468;-84
2022/12/15 12:47:16;;;;;;;18.70;11.87;;;;;;;;;;5077648;28;20436;-84
2022/12/15 12:49:45;;;;;;;17.53;10.10;;;;;;;;;;5075767;28;20478;-84
2022/12/15 12:52:18;;;;;;;22.03;14.80;;;;;;;;;;5072427;28;20446;-84
2022/12/15 12:54:50;;;;;;;17.50;12.30;;;;;;;;;;5074366;28;20474;-83
2022/12/15 12:57:33;;;;;;;16.40;11.93;;;;;;;;;;5073528;28;20521;-84
2022/12/15 13:00:01;;;;;;;18.00;12.70;;;;;;;;;;5071704;28;20984;-84
2022/12/15 13:02:43;;;;;;;15.30;12.30;;;;;;;;;;5072113;28;20447;-83
2022/12/15 13:05:37;;;;;;;15.83;10.30;;;;;;;;;;5072812;28;20465;-83
2022/12/15 13:08:17;;;;;;;18.10;11.00;;;;;;;;;;5074879;28;20482;-83
2022/12/15 13:10:45;;;;;;;16.47;10.80;;;;;;;;;;5068822;28;20456;-84
2022/12/15 13:13:32;;;;;;;14.63;11.17;;;;;;;;;;5072468;28;20440;-83
2022/12/15 13:16:01;;;;;;;16.30;10.90;;;;;;;;;;5077588;28;20453;-84
2022/12/15 13:18:28;;;;;;;21.43;11.57;;;;;;;;;;5076057;28;20467;-84
2022/12/15 13:20:56;;;;;;;14.30;10.97;;;;;;;;;;5076623;28;20453;-84
2022/12/15 13:23:42;;;;;;;17.60;11.17;;;;;;;;;;5074403;28;20463;-84
2022/12/15 13:26:18;;;;;;;17.13;12.23;;;;;;;;;;5073886;28;20456;-83
2022/12/15 13:28:59;;;;;;;15.60;11.10;;;;;;;;;;5075900;28;20472;-84
2022/12/15 13:31:27;;;;;;;13.07;10.70;;;;;;;;;;5077029;28;20437;-83
2022/12/15 13:34:11;;;;;;;14.20;10.43;;;;;;;;;;5076779;28;20476;-84
2022/12/15 13:36:50;;;;;;;18.13;12.03;;;;;;;;;;5056961;28;20486;-83
2022/12/15 13:39:33;;;;;;;16.53;12.13;;;;;;;;;;5070494;28;20985;-84
2022/12/15 13:42:29;;;;;;;19.47;13.60;;;;;;;;;;5072546;28;20491;-84
2022/12/15 13:45:03;;;;;;;18.73;12.27;;;;;;;;;;5026831;28;20481;-84
2022/12/15 13:47:30;;;;;;;17.17;11.07;;;;;;;;;;5062911;28;20471;-83
2022/12/15 13:49:59;;;;;;;18.47;13.20;;;;;;;;;;5069717;28;20469;-84
2022/12/15 13:52:32;;;;;;;14.87;11.13;;;;;;;;;;5074851;28;20454;-83
2022/12/15 13:54:59;;;;;;;16.43;11.67;;;;;;;;;;5071217;28;20471;-84
2022/12/15 13:57:26;;;;;;;17.93;12.80;;;;;;;;;;5071512;28;20489;-84
2022/12/15 13:59:55;;;;;;;18.67;11.50;;;;;;;;;;5072586;28;20463;-84
2022/12/15 14:02:23;;;;;;;16.60;13.13;;;;;;;;;;5075105;28;20446;-84
2022/12/15 14:05:03;;;;;;;20.03;12.70;;;;;;;;;;5072550;28;20484;-83
2022/12/15 14:07:31;;;;;;;17.47;11.20;;;;;;;;;;5074521;28;20449;-84
2022/12/15 14:09:57;;;;;;;18.33;12.50;;;;;;;;;;5072064;28;20474;-84
2022/12/15 14:12:23;;;;;;;14.53;11.60;;;;;;;;;;5070465;28;20471;-84
2022/12/15 14:14:51;;;;;;;15.57;11.23;;;;;;;;;;5073933;28;20473;-83
2022/12/15 14:17:18;;;;;;;16.80;11.83;;;;;;;;;;5077990;28;20861;-84
2022/12/15 14:19:46;;;;;;;18.90;12.00;;;;;;;;;;5079652;28;20473;-83
2022/12/15 14:22:21;;;;;;;24.93;13.47;;;;;;;;;;5078501;28;20455;-84
2022/12/15 14:24:50;;;;;;;17.50;12.83;;;;;;;;;;5080507;28;20477;-84
2022/12/15 14:27:23;;;;;;;18.03;12.53;;;;;;;;;;5072315;28;20477;-84
2022/12/15 14:29:50;;;;;;;19.53;12.67;;;;;;;;;;5077596;28;20464;-83
2022/12/15 14:32:16;;;;;;;17.30;12.63;;;;;;;;;;5079093;28;20463;-84
2022/12/15 14:34:43;;;;;;;18.57;12.53;;;;;;;;;;5078072;28;20476;-84
2022/12/15 14:37:13;;;;;;;25.90;17.27;;;;;;;;;;5083372;28;20478;-84
2022/12/15 14:39:41;;;;;;;18.37;13.77;;;;;;;;;;5076030;28;20482;-83
2022/12/15 14:42:15;;;;;;;17.00;12.27;;;;;;;;;;5080013;28;20509;-84
2022/12/15 14:44:44;;;;;;;17.30;12.67;;;;;;;;;;5082592;28;20469;-83
2022/12/15 14:47:16;;;;;;;16.80;12.97;;;;;;;;;;5079614;28;20482;-83
2022/12/15 14:49:44;;;;;;;18.77;12.43;;;;;;;;;;5073633;28;20474;-83
2022/12/15 14:52:17;;;;;;;18.73;12.87;;;;;;;;;;5077215;28;20518;-83
2022/12/15 14:54:50;;;;;;;18.60;12.57;;;;;;;;;;5071696;28;20472;-84
2022/12/15 14:57:20;;;;;;;22.53;11.97;;;;;;;;;;5076709;28;20483;-83
2022/12/15 14:59:48;;;;;;;17.70;13.63;;;;;;;;;;5075667;28;20554;-84
2022/12/15 15:02:21;;;;;;;23.43;13.20;;;;;;;;;;5079732;28;20447;-84
2022/12/15 15:04:55;;;;;;;18.13;12.63;;;;;;;;;;5071542;28;20465;-84
2022/12/15 15:07:22;;;;;;;20.10;13.50;;;;;;;;;;5079136;28;20522;-84
2022/12/15 15:09:48;;;;;;;19.27;12.87;;;;;;;;;;5071874;28;20474;-83
2022/12/15 15:12:16;;;;;;;21.93;15.20;;;;;;;;;;5074092;28;20451;-84
2022/12/15 15:14:45;;;;;;;20.00;14.07;;;;;;;;;;5074286;28;20586;-84
2022/12/15 15:17:16;;;;;;;18.37;14.47;;;;;;;;;;5074593;28;20484;-84
2022/12/15 15:19:46;;;;;;;18.40;12.70;;;;;;;;;;5075376;28;20474;-83
2022/12/15 15:22:23;;;;;;;20.67;15.07;;;;;;;;;;5077246;28;20820;-84
2022/12/15 15:24:50;;;;;;;27.10;14.13;;;;;;;;;;5072275;28;20562;-84
2022/12/15 15:27:31;;;;;;;22.20;15.17;;;;;;;;;;5079934;28;20474;-83
2022/12/15 15:30:14;;;;;;;26.70;14.10;;;;;;;;;;5078787;28;20491;-85
2022/12/15 15:32:49;;;;;;;17.67;12.50;;;;;;;;;;5077945;28;20495;-83
2022/12/15 15:35:15;;;;;;;23.17;15.20;;;;;;;;;;5078824;28;20475;-83
2022/12/15 15:37:42;;;;;;;20.20;14.40;;;;;;;;;;5076179;28;20873;-84
2022/12/15 15:40:10;;;;;;;26.13;13.93;;;;;;;;;;5078411;28;20472;-83
2022/12/15 15:42:36;;;;;;;18.83;14.13;;;;;;;;;;5075491;28;20435;-84
2022/12/15 15:45:03;;;;;;;20.27;15.73;;;;;;;;;;5078421;28;20479;-84
2022/12/15 15:47:30;;;;;;;23.63;14.30;;;;;;;;;;5079682;28;20494;-84
2022/12/15 15:49:58;;;;;;;27.73;15.80;;;;;;;;;;5078916;28;20473;-83
2022/12/15 15:52:24;;;;;;;22.97;14.13;;;;;;;;;;5078793;28;20510;-84
2022/12/15 15:54:52;;;;;;;26.60;15.40;;;;;;;;;;5071905;28;20471;-83
2022/12/15 15:57:19;;;;;;;20.63;14.53;;;;;;;;;;5074634;28;20484;-86
2022/12/15 15:59:45;;;;;;;35.53;17.63;;;;;;;;;;5076549;28;20463;-84
2022/12/15 16:02:13;;;;;;;23.67;15.90;;;;;;;;;;5076116;28;20463;-83
2022/12/15 16:04:41;;;;;;;20.33;15.03;;;;;;;;;;5077301;28;20471;-83
2022/12/15 16:07:15;;;;;;;22.20;14.83;;;;;;;;;;5073825;28;20513;-84
2022/12/15 16:09:41;;;;;;;25.60;15.90;;;;;;;;;;5071184;28;20468;-84
2022/12/15 16:12:10;;;;;;;26.97;16.90;;;;;;;;;;5074404;28;20469;-83
2022/12/15 16:14:36;;;;;;;18.63;14.90;;;;;;;;;;5072937;28;20546;-84
2022/12/15 16:17:03;;;;;;;24.33;15.80;;;;;;;;;;5071538;28;20451;-83
2022/12/15 16:19:30;;;;;;;24.97;18.17;;;;;;;;;;5073396;28;20471;-83
2022/12/15 16:21:57;;;;;;;22.93;16.47;;;;;;;;;;5073660;28;20450;-83
2022/12/15 16:24:24;;;;;;;20.20;16.67;;;;;;;;;;5080001;28;20471;-84
2022/12/15 16:26:50;;;;;;;24.70;17.50;;;;;;;;;;5076806;28;20481;-83
2022/12/15 16:29:18;;;;;;;24.73;17.70;;;;;;;;;;5072442;28;20539;-84
2022/12/15 16:31:45;;;;;;;23.03;17.50;;;;;;;;;;5071932;28;20463;-84
2022/12/15 16:34:12;;;;;;;24.23;16.57;;;;;;;;;;5072780;28;20491;-83
2022/12/15 16:36:39;;;;;;;28.57;18.33;;;;;;;;;;5074087;28;20452;-84
2022/12/15 16:39:13;;;;;;;30.03;19.27;;;;;;;;;;5074148;28;20464;-84
2022/12/15 16:41:39;;;;;;;78.60;50.47;;;;;;;;;;5072408;28;20458;-84
2022/12/15 16:44:10;;;;;;;42.30;28.80;;;;;;;;;;5076692;28;20467;-84
2022/12/15 16:46:36;;;;;;;51.57;41.33;;;;;;;;;;5068021;28;20451;-84
2022/12/15 16:49:02;;;;;;;28.77;20.77;;;;;;;;;;5074318;28;20501;-84